sensor_id;sensor_type;location;lat;lon;timestamp;P1;durP1;ratioP1;P2;durP2;ratioP2
4957;SDS011;2494;51.872;9.688;2022-08-01T00:01:25;11.97;;;10.90;;
4957;SDS011;2494;51.872;9.688;2022-08-01T00:03:51;11.83;;;10.73;;
4957;SDS011;2494;51.872;9.688;2022-08-01T00:06:18;12.53;;;11.33;;
4957;SDS011;2494;51.872;9.688;2022-08-01T00:08:44;14.53;;;11.73;;
4957;SDS011;2494;51.872;9.688;2022-08-01T00:11:12;12.30;;;11.10;;
4957;SDS011;2494;51.872;9.688;2022-08-01T00:13:38;11.23;;;10.00;;
4957;SDS011;2494;51.872;9.688;2022-08-01T00:16:05;11.87;;;10.77;;
4957;SDS011;2494;51.872;9.688;2022-08-01T00:18:31;11.90;;;10.80;;
4957;SDS011;2494;51.872;9.688;2022-08-01T00:20:58;10.30;;;9.50;;
4957;SDS011;2494;51.872;9.688;2022-08-01T00:23:24;11.93;;;9.77;;
4957;SDS011;2494;51.872;9.688;2022-08-01T00:25:50;10.97;;;10.00;;
4957;SDS011;2494;51.872;9.688;2022-08-01T00:28:18;12.00;;;10.70;;
4957;SDS011;2494;51.872;9.688;2022-08-01T00:30:44;12.23;;;10.97;;
4957;SDS011;2494;51.872;9.688;2022-08-01T00:33:11;12.63;;;11.33;;
4957;SDS011;2494;51.872;9.688;2022-08-01T00:35:37;12.83;;;11.73;;
4957;SDS011;2494;51.872;9.688;2022-08-01T00:38:03;14.53;;;11.50;;
4957;SDS011;2494;51.872;9.688;2022-08-01T00:40:29;11.90;;;10.80;;
4957;SDS011;2494;51.872;9.688;2022-08-01T00:42:56;13.60;;;12.10;;
4957;SDS011;2494;51.872;9.688;2022-08-01T00:45:24;12.97;;;11.67;;
4957;SDS011;2494;51.872;9.688;2022-08-01T00:47:50;16.93;;;11.83;;
4957;SDS011;2494;51.872;9.688;2022-08-01T00:50:16;13.10;;;10.40;;
4957;SDS011;2494;51.872;9.688;2022-08-01T00:52:42;14.17;;;12.10;;
4957;SDS011;2494;51.872;9.688;2022-08-01T00:55:09;13.00;;;11.60;;
4957;SDS011;2494;51.872;9.688;2022-08-01T00:57:36;12.47;;;11.10;;
4957;SDS011;2494;51.872;9.688;2022-08-01T01:00:03;11.97;;;10.20;;
4957;SDS011;2494;51.872;9.688;2022-08-01T01:02:31;11.70;;;10.63;;
4957;SDS011;2494;51.872;9.688;2022-08-01T01:04:58;11.40;;;10.20;;
4957;SDS011;2494;51.872;9.688;2022-08-01T01:07:25;11.63;;;10.60;;
4957;SDS011;2494;51.872;9.688;2022-08-01T01:09:56;11.17;;;9.63;;
4957;SDS011;2494;51.872;9.688;2022-08-01T01:12:29;11.87;;;10.90;;
4957;SDS011;2494;51.872;9.688;2022-08-01T01:14:57;11.60;;;9.30;;
4957;SDS011;2494;51.872;9.688;2022-08-01T01:17:28;11.27;;;9.20;;
4957;SDS011;2494;51.872;9.688;2022-08-01T01:19:59;10.77;;;9.73;;
4957;SDS011;2494;51.872;9.688;2022-08-01T01:22:45;8.73;;;8.03;;
4957;SDS011;2494;51.872;9.688;2022-08-01T01:25:18;9.97;;;8.97;;
4957;SDS011;2494;51.872;9.688;2022-08-01T01:27:50;9.37;;;8.57;;
4957;SDS011;2494;51.872;9.688;2022-08-01T01:30:18;8.13;;;7.33;;
4957;SDS011;2494;51.872;9.688;2022-08-01T01:32:45;9.63;;;7.30;;
4957;SDS011;2494;51.872;9.688;2022-08-01T01:35:15;9.03;;;7.97;;
4957;SDS011;2494;51.872;9.688;2022-08-01T01:37:42;9.17;;;7.97;;
4957;SDS011;2494;51.872;9.688;2022-08-01T01:40:11;10.00;;;8.87;;
4957;SDS011;2494;51.872;9.688;2022-08-01T01:42:38;11.07;;;8.40;;
4957;SDS011;2494;51.872;9.688;2022-08-01T01:45:06;9.40;;;8.50;;
4957;SDS011;2494;51.872;9.688;2022-08-01T01:47:34;10.20;;;9.13;;
4957;SDS011;2494;51.872;9.688;2022-08-01T01:50:02;11.97;;;8.90;;
4957;SDS011;2494;51.872;9.688;2022-08-01T01:52:29;13.30;;;8.37;;
4957;SDS011;2494;51.872;9.688;2022-08-01T01:54:57;10.60;;;8.83;;
4957;SDS011;2494;51.872;9.688;2022-08-01T01:57:24;17.47;;;9.40;;
4957;SDS011;2494;51.872;9.688;2022-08-01T01:59:51;10.80;;;8.40;;
4957;SDS011;2494;51.872;9.688;2022-08-01T02:02:19;11.30;;;9.27;;
4957;SDS011;2494;51.872;9.688;2022-08-01T02:04:47;10.63;;;9.63;;
4957;SDS011;2494;51.872;9.688;2022-08-01T02:07:14;9.97;;;9.13;;
4957;SDS011;2494;51.872;9.688;2022-08-01T02:09:42;9.20;;;8.30;;
4957;SDS011;2494;51.872;9.688;2022-08-01T02:12:09;10.43;;;8.67;;
4957;SDS011;2494;51.872;9.688;2022-08-01T02:14:36;9.80;;;8.60;;
4957;SDS011;2494;51.872;9.688;2022-08-01T02:17:05;7.80;;;7.00;;
4957;SDS011;2494;51.872;9.688;2022-08-01T02:19:32;8.40;;;7.70;;
4957;SDS011;2494;51.872;9.688;2022-08-01T02:22:01;10.17;;;6.73;;
4957;SDS011;2494;51.872;9.688;2022-08-01T02:24:28;11.43;;;7.73;;
4957;SDS011;2494;51.872;9.688;2022-08-01T02:26:57;9.10;;;7.43;;
4957;SDS011;2494;51.872;9.688;2022-08-01T02:29:27;8.07;;;7.27;;
4957;SDS011;2494;51.872;9.688;2022-08-01T02:31:57;7.20;;;6.70;;
4957;SDS011;2494;51.872;9.688;2022-08-01T02:34:24;7.13;;;6.50;;
4957;SDS011;2494;51.872;9.688;2022-08-01T02:36:51;8.37;;;7.30;;
4957;SDS011;2494;51.872;9.688;2022-08-01T02:39:19;8.30;;;7.50;;
4957;SDS011;2494;51.872;9.688;2022-08-01T02:41:48;10.87;;;7.37;;
4957;SDS011;2494;51.872;9.688;2022-08-01T02:44:16;10.27;;;7.30;;
4957;SDS011;2494;51.872;9.688;2022-08-01T02:46:45;7.43;;;6.50;;
4957;SDS011;2494;51.872;9.688;2022-08-01T02:49:13;7.70;;;6.80;;
4957;SDS011;2494;51.872;9.688;2022-08-01T02:51:40;7.27;;;6.60;;
4957;SDS011;2494;51.872;9.688;2022-08-01T02:54:08;9.40;;;7.60;;
4957;SDS011;2494;51.872;9.688;2022-08-01T02:56:37;9.47;;;6.70;;
4957;SDS011;2494;51.872;9.688;2022-08-01T02:59:07;8.47;;;6.33;;
4957;SDS011;2494;51.872;9.688;2022-08-01T03:01:34;6.87;;;6.37;;
4957;SDS011;2494;51.872;9.688;2022-08-01T03:04:02;7.23;;;6.63;;
4957;SDS011;2494;51.872;9.688;2022-08-01T03:06:29;7.67;;;6.83;;
4957;SDS011;2494;51.872;9.688;2022-08-01T03:08:56;7.10;;;6.50;;
4957;SDS011;2494;51.872;9.688;2022-08-01T03:11:23;6.40;;;4.83;;
4957;SDS011;2494;51.872;9.688;2022-08-01T03:13:52;8.27;;;7.47;;
4957;SDS011;2494;51.872;9.688;2022-08-01T03:16:19;9.47;;;6.50;;
4957;SDS011;2494;51.872;9.688;2022-08-01T03:18:46;8.67;;;6.40;;
4957;SDS011;2494;51.872;9.688;2022-08-01T03:21:14;6.83;;;5.90;;
4957;SDS011;2494;51.872;9.688;2022-08-01T03:23:41;7.20;;;5.70;;
4957;SDS011;2494;51.872;9.688;2022-08-01T03:26:08;6.50;;;5.50;;
4957;SDS011;2494;51.872;9.688;2022-08-01T03:28:35;6.47;;;5.50;;
4957;SDS011;2494;51.872;9.688;2022-08-01T03:31:04;6.27;;;5.63;;
4957;SDS011;2494;51.872;9.688;2022-08-01T03:33:31;5.17;;;4.70;;
4957;SDS011;2494;51.872;9.688;2022-08-01T03:35:57;5.53;;;4.80;;
4957;SDS011;2494;51.872;9.688;2022-08-01T03:38:25;4.97;;;4.53;;
4957;SDS011;2494;51.872;9.688;2022-08-01T03:40:53;4.60;;;4.20;;
4957;SDS011;2494;51.872;9.688;2022-08-01T03:43:22;8.80;;;4.73;;
4957;SDS011;2494;51.872;9.688;2022-08-01T03:45:49;10.20;;;3.97;;
4957;SDS011;2494;51.872;9.688;2022-08-01T03:48:18;7.63;;;4.30;;
4957;SDS011;2494;51.872;9.688;2022-08-01T03:50:45;7.83;;;3.93;;
4957;SDS011;2494;51.872;9.688;2022-08-01T03:53:13;4.17;;;3.87;;
4957;SDS011;2494;51.872;9.688;2022-08-01T03:55:41;8.03;;;4.20;;
4957;SDS011;2494;51.872;9.688;2022-08-01T03:58:08;10.47;;;4.27;;
4957;SDS011;2494;51.872;9.688;2022-08-01T04:00:35;5.97;;;4.47;;
4957;SDS011;2494;51.872;9.688;2022-08-01T04:03:03;4.00;;;3.70;;
4957;SDS011;2494;51.872;9.688;2022-08-01T04:05:31;4.40;;;4.00;;
4957;SDS011;2494;51.872;9.688;2022-08-01T04:07:57;4.90;;;4.40;;
4957;SDS011;2494;51.872;9.688;2022-08-01T04:10:26;5.90;;;4.90;;
4957;SDS011;2494;51.872;9.688;2022-08-01T04:12:53;4.40;;;4.00;;
4957;SDS011;2494;51.872;9.688;2022-08-01T04:15:19;5.50;;;3.93;;
4957;SDS011;2494;51.872;9.688;2022-08-01T04:17:46;5.33;;;4.83;;
4957;SDS011;2494;51.872;9.688;2022-08-01T04:20:12;7.33;;;4.93;;
4957;SDS011;2494;51.872;9.688;2022-08-01T04:22:42;5.60;;;4.43;;
4957;SDS011;2494;51.872;9.688;2022-08-01T04:25:09;5.27;;;4.80;;
4957;SDS011;2494;51.872;9.688;2022-08-01T04:27:37;4.93;;;4.53;;
4957;SDS011;2494;51.872;9.688;2022-08-01T04:30:05;6.63;;;6.03;;
4957;SDS011;2494;51.872;9.688;2022-08-01T04:32:33;7.00;;;5.27;;
4957;SDS011;2494;51.872;9.688;2022-08-01T04:35:00;5.40;;;4.97;;
4957;SDS011;2494;51.872;9.688;2022-08-01T04:37:27;6.23;;;5.43;;
4957;SDS011;2494;51.872;9.688;2022-08-01T04:39:55;7.03;;;5.20;;
4957;SDS011;2494;51.872;9.688;2022-08-01T04:42:22;5.90;;;5.37;;
4957;SDS011;2494;51.872;9.688;2022-08-01T04:44:49;6.33;;;5.70;;
4957;SDS011;2494;51.872;9.688;2022-08-01T04:47:15;5.77;;;5.10;;
4957;SDS011;2494;51.872;9.688;2022-08-01T04:49:42;6.00;;;5.00;;
4957;SDS011;2494;51.872;9.688;2022-08-01T04:52:12;7.20;;;5.50;;
4957;SDS011;2494;51.872;9.688;2022-08-01T04:54:38;5.77;;;5.23;;
4957;SDS011;2494;51.872;9.688;2022-08-01T04:57:06;5.10;;;4.70;;
4957;SDS011;2494;51.872;9.688;2022-08-01T04:59:33;4.80;;;4.30;;
4957;SDS011;2494;51.872;9.688;2022-08-01T05:02:07;4.57;;;4.17;;
4957;SDS011;2494;51.872;9.688;2022-08-01T05:04:34;4.07;;;3.70;;
4957;SDS011;2494;51.872;9.688;2022-08-01T05:07:00;3.53;;;3.23;;
4957;SDS011;2494;51.872;9.688;2022-08-01T05:09:27;4.27;;;3.50;;
4957;SDS011;2494;51.872;9.688;2022-08-01T05:11:53;4.67;;;4.00;;
4957;SDS011;2494;51.872;9.688;2022-08-01T05:14:21;3.33;;;3.03;;
4957;SDS011;2494;51.872;9.688;2022-08-01T05:16:47;3.43;;;3.23;;
4957;SDS011;2494;51.872;9.688;2022-08-01T05:19:13;5.37;;;2.40;;
4957;SDS011;2494;51.872;9.688;2022-08-01T05:21:39;6.37;;;3.20;;
4957;SDS011;2494;51.872;9.688;2022-08-01T05:24:06;2.93;;;2.63;;
4957;SDS011;2494;51.872;9.688;2022-08-01T05:26:32;3.37;;;2.47;;
4957;SDS011;2494;51.872;9.688;2022-08-01T05:28:59;2.70;;;2.30;;
4957;SDS011;2494;51.872;9.688;2022-08-01T05:31:26;2.40;;;2.00;;
4957;SDS011;2494;51.872;9.688;2022-08-01T05:33:53;3.00;;;2.33;;
4957;SDS011;2494;51.872;9.688;2022-08-01T05:36:20;2.10;;;1.90;;
4957;SDS011;2494;51.872;9.688;2022-08-01T05:38:47;4.13;;;1.90;;
4957;SDS011;2494;51.872;9.688;2022-08-01T05:41:13;2.30;;;2.13;;
4957;SDS011;2494;51.872;9.688;2022-08-01T05:43:40;2.17;;;2.07;;
4957;SDS011;2494;51.872;9.688;2022-08-01T05:46:06;2.83;;;2.17;;
4957;SDS011;2494;51.872;9.688;2022-08-01T05:48:34;2.30;;;2.10;;
4957;SDS011;2494;51.872;9.688;2022-08-01T05:51:00;2.27;;;1.83;;
4957;SDS011;2494;51.872;9.688;2022-08-01T05:53:26;2.30;;;1.70;;
4957;SDS011;2494;51.872;9.688;2022-08-01T05:55:53;2.20;;;2.10;;
4957;SDS011;2494;51.872;9.688;2022-08-01T05:58:19;3.80;;;2.60;;
4957;SDS011;2494;51.872;9.688;2022-08-01T06:00:45;2.53;;;2.00;;
4957;SDS011;2494;51.872;9.688;2022-08-01T06:03:12;1.80;;;1.70;;
4957;SDS011;2494;51.872;9.688;2022-08-01T06:05:40;2.33;;;2.10;;
4957;SDS011;2494;51.872;9.688;2022-08-01T06:08:07;2.03;;;1.93;;
4957;SDS011;2494;51.872;9.688;2022-08-01T06:10:33;1.63;;;1.53;;
4957;SDS011;2494;51.872;9.688;2022-08-01T06:12:59;2.10;;;1.70;;
4957;SDS011;2494;51.872;9.688;2022-08-01T06:15:27;2.93;;;2.40;;
4957;SDS011;2494;51.872;9.688;2022-08-01T06:17:54;2.97;;;1.70;;
4957;SDS011;2494;51.872;9.688;2022-08-01T06:20:20;2.33;;;1.80;;
4957;SDS011;2494;51.872;9.688;2022-08-01T06:22:48;2.40;;;1.80;;
4957;SDS011;2494;51.872;9.688;2022-08-01T06:25:16;2.10;;;1.97;;
4957;SDS011;2494;51.872;9.688;2022-08-01T06:27:42;1.60;;;1.50;;
4957;SDS011;2494;51.872;9.688;2022-08-01T06:30:09;3.50;;;1.47;;
4957;SDS011;2494;51.872;9.688;2022-08-01T06:32:36;1.63;;;1.53;;
4957;SDS011;2494;51.872;9.688;2022-08-01T06:35:03;1.27;;;1.17;;
4957;SDS011;2494;51.872;9.688;2022-08-01T06:37:29;2.17;;;1.07;;
4957;SDS011;2494;51.872;9.688;2022-08-01T06:39:57;1.10;;;1.00;;
4957;SDS011;2494;51.872;9.688;2022-08-01T06:42:25;2.30;;;1.10;;
4957;SDS011;2494;51.872;9.688;2022-08-01T06:44:52;1.53;;;1.27;;
4957;SDS011;2494;51.872;9.688;2022-08-01T06:47:18;1.10;;;1.00;;
4957;SDS011;2494;51.872;9.688;2022-08-01T06:49:44;1.80;;;1.07;;
4957;SDS011;2494;51.872;9.688;2022-08-01T06:52:11;1.30;;;1.20;;
4957;SDS011;2494;51.872;9.688;2022-08-01T06:54:37;1.23;;;1.13;;
4957;SDS011;2494;51.872;9.688;2022-08-01T06:57:05;1.03;;;1.00;;
4957;SDS011;2494;51.872;9.688;2022-08-01T06:59:32;0.97;;;0.97;;
4957;SDS011;2494;51.872;9.688;2022-08-01T07:01:58;0.90;;;0.80;;
4957;SDS011;2494;51.872;9.688;2022-08-01T07:04:26;1.00;;;1.00;;
4957;SDS011;2494;51.872;9.688;2022-08-01T07:06:52;1.30;;;1.00;;
4957;SDS011;2494;51.872;9.688;2022-08-01T07:09:18;2.43;;;1.27;;
4957;SDS011;2494;51.872;9.688;2022-08-01T07:11:44;1.23;;;1.13;;
4957;SDS011;2494;51.872;9.688;2022-08-01T07:14:12;1.67;;;1.57;;
4957;SDS011;2494;51.872;9.688;2022-08-01T07:16:38;1.90;;;1.33;;
4957;SDS011;2494;51.872;9.688;2022-08-01T07:19:05;2.77;;;2.10;;
4957;SDS011;2494;51.872;9.688;2022-08-01T07:21:31;3.00;;;1.90;;
4957;SDS011;2494;51.872;9.688;2022-08-01T07:23:58;2.13;;;1.50;;
4957;SDS011;2494;51.872;9.688;2022-08-01T07:26:24;1.60;;;1.50;;
4957;SDS011;2494;51.872;9.688;2022-08-01T07:28:51;2.63;;;1.30;;
4957;SDS011;2494;51.872;9.688;2022-08-01T07:31:19;2.23;;;1.70;;
4957;SDS011;2494;51.872;9.688;2022-08-01T07:33:45;5.63;;;2.00;;
4957;SDS011;2494;51.872;9.688;2022-08-01T07:36:12;1.60;;;1.40;;
4957;SDS011;2494;51.872;9.688;2022-08-01T07:38:38;1.73;;;1.50;;
4957;SDS011;2494;51.872;9.688;2022-08-01T07:41:04;1.60;;;1.47;;
4957;SDS011;2494;51.872;9.688;2022-08-01T07:43:31;1.27;;;1.17;;
4957;SDS011;2494;51.872;9.688;2022-08-01T07:45:57;1.20;;;1.10;;
4957;SDS011;2494;51.872;9.688;2022-08-01T07:48:25;1.60;;;1.17;;
4957;SDS011;2494;51.872;9.688;2022-08-01T07:50:52;1.77;;;1.00;;
4957;SDS011;2494;51.872;9.688;2022-08-01T07:53:18;1.63;;;1.00;;
4957;SDS011;2494;51.872;9.688;2022-08-01T07:55:44;2.03;;;1.20;;
4957;SDS011;2494;51.872;9.688;2022-08-01T07:58:11;1.10;;;1.00;;
4957;SDS011;2494;51.872;9.688;2022-08-01T08:00:37;0.80;;;0.80;;
4957;SDS011;2494;51.872;9.688;2022-08-01T08:03:03;0.83;;;0.80;;
4957;SDS011;2494;51.872;9.688;2022-08-01T08:05:31;1.30;;;0.70;;
4957;SDS011;2494;51.872;9.688;2022-08-01T08:08:00;0.70;;;0.70;;
4957;SDS011;2494;51.872;9.688;2022-08-01T08:10:26;1.43;;;0.87;;
4957;SDS011;2494;51.872;9.688;2022-08-01T08:12:52;3.07;;;0.80;;
4957;SDS011;2494;51.872;9.688;2022-08-01T08:15:19;1.20;;;0.60;;
4957;SDS011;2494;51.872;9.688;2022-08-01T08:17:45;1.10;;;0.70;;
4957;SDS011;2494;51.872;9.688;2022-08-01T08:20:11;0.70;;;0.70;;
4957;SDS011;2494;51.872;9.688;2022-08-01T08:22:39;0.70;;;0.60;;
4957;SDS011;2494;51.872;9.688;2022-08-01T08:25:06;1.00;;;0.73;;
4957;SDS011;2494;51.872;9.688;2022-08-01T08:27:33;0.70;;;0.70;;
4957;SDS011;2494;51.872;9.688;2022-08-01T08:29:59;0.70;;;0.70;;
4957;SDS011;2494;51.872;9.688;2022-08-01T08:32:25;0.90;;;0.70;;
4957;SDS011;2494;51.872;9.688;2022-08-01T08:34:51;0.80;;;0.60;;
4957;SDS011;2494;51.872;9.688;2022-08-01T08:37:18;0.73;;;0.63;;
4957;SDS011;2494;51.872;9.688;2022-08-01T08:39:45;1.40;;;1.10;;
4957;SDS011;2494;51.872;9.688;2022-08-01T08:42:12;1.00;;;0.80;;
4957;SDS011;2494;51.872;9.688;2022-08-01T08:44:39;0.83;;;0.73;;
4957;SDS011;2494;51.872;9.688;2022-08-01T08:47:06;1.17;;;0.70;;
4957;SDS011;2494;51.872;9.688;2022-08-01T08:49:33;1.53;;;0.90;;
4957;SDS011;2494;51.872;9.688;2022-08-01T08:52:01;1.20;;;1.10;;
4957;SDS011;2494;51.872;9.688;2022-08-01T08:54:28;0.60;;;0.60;;
4957;SDS011;2494;51.872;9.688;2022-08-01T08:56:56;2.53;;;0.50;;
4957;SDS011;2494;51.872;9.688;2022-08-01T08:59:23;2.63;;;0.60;;
4957;SDS011;2494;51.872;9.688;2022-08-01T09:01:50;1.43;;;0.60;;
4957;SDS011;2494;51.872;9.688;2022-08-01T09:04:17;0.60;;;0.60;;
4957;SDS011;2494;51.872;9.688;2022-08-01T09:06:43;0.80;;;0.70;;
4957;SDS011;2494;51.872;9.688;2022-08-01T09:09:09;1.20;;;0.90;;
4957;SDS011;2494;51.872;9.688;2022-08-01T09:11:36;3.13;;;0.80;;
4957;SDS011;2494;51.872;9.688;2022-08-01T09:14:07;0.77;;;0.63;;
4957;SDS011;2494;51.872;9.688;2022-08-01T09:16:35;0.90;;;0.70;;
4957;SDS011;2494;51.872;9.688;2022-08-01T09:19:08;3.53;;;0.80;;
4957;SDS011;2494;51.872;9.688;2022-08-01T09:21:35;1.63;;;0.80;;
4957;SDS011;2494;51.872;9.688;2022-08-01T09:24:02;0.80;;;0.70;;
4957;SDS011;2494;51.872;9.688;2022-08-01T09:26:31;0.80;;;0.80;;
4957;SDS011;2494;51.872;9.688;2022-08-01T09:28:58;1.00;;;1.00;;
4957;SDS011;2494;51.872;9.688;2022-08-01T09:31:26;2.03;;;0.90;;
4957;SDS011;2494;51.872;9.688;2022-08-01T09:33:53;1.47;;;1.00;;
4957;SDS011;2494;51.872;9.688;2022-08-01T09:36:21;1.40;;;1.30;;
4957;SDS011;2494;51.872;9.688;2022-08-01T09:38:47;1.03;;;0.93;;
4957;SDS011;2494;51.872;9.688;2022-08-01T09:41:14;0.90;;;0.90;;
4957;SDS011;2494;51.872;9.688;2022-08-01T09:43:40;1.77;;;1.27;;
4957;SDS011;2494;51.872;9.688;2022-08-01T09:46:13;1.00;;;1.00;;
4957;SDS011;2494;51.872;9.688;2022-08-01T09:48:41;0.93;;;0.93;;
4957;SDS011;2494;51.872;9.688;2022-08-01T09:51:27;1.37;;;1.07;;
4957;SDS011;2494;51.872;9.688;2022-08-01T09:53:53;2.40;;;1.23;;
4957;SDS011;2494;51.872;9.688;2022-08-01T09:56:21;0.90;;;0.90;;
4957;SDS011;2494;51.872;9.688;2022-08-01T09:58:55;1.07;;;1.00;;
4957;SDS011;2494;51.872;9.688;2022-08-01T10:01:21;1.10;;;1.00;;
4957;SDS011;2494;51.872;9.688;2022-08-01T10:03:59;0.90;;;0.90;;
4957;SDS011;2494;51.872;9.688;2022-08-01T10:06:29;0.90;;;0.90;;
4957;SDS011;2494;51.872;9.688;2022-08-01T10:08:56;2.53;;;1.33;;
4957;SDS011;2494;51.872;9.688;2022-08-01T10:11:22;1.13;;;0.90;;
4957;SDS011;2494;51.872;9.688;2022-08-01T10:13:49;0.93;;;0.93;;
4957;SDS011;2494;51.872;9.688;2022-08-01T10:16:15;0.70;;;0.70;;
4957;SDS011;2494;51.872;9.688;2022-08-01T10:18:42;1.20;;;0.83;;
4957;SDS011;2494;51.872;9.688;2022-08-01T10:21:11;1.20;;;1.10;;
4957;SDS011;2494;51.872;9.688;2022-08-01T10:23:38;1.10;;;1.00;;
4957;SDS011;2494;51.872;9.688;2022-08-01T10:26:04;0.90;;;0.90;;
4957;SDS011;2494;51.872;9.688;2022-08-01T10:28:31;1.10;;;1.00;;
4957;SDS011;2494;51.872;9.688;2022-08-01T10:31:00;1.43;;;1.17;;
4957;SDS011;2494;51.872;9.688;2022-08-01T10:33:27;1.23;;;1.00;;
4957;SDS011;2494;51.872;9.688;2022-08-01T10:35:54;0.87;;;0.87;;
4957;SDS011;2494;51.872;9.688;2022-08-01T10:38:22;1.70;;;0.80;;
4957;SDS011;2494;51.872;9.688;2022-08-01T10:40:49;0.90;;;0.90;;
4957;SDS011;2494;51.872;9.688;2022-08-01T10:43:16;1.00;;;1.00;;
4957;SDS011;2494;51.872;9.688;2022-08-01T10:45:43;1.30;;;1.20;;
4957;SDS011;2494;51.872;9.688;2022-08-01T10:48:10;1.50;;;1.40;;
4957;SDS011;2494;51.872;9.688;2022-08-01T10:50:39;1.50;;;1.40;;
4957;SDS011;2494;51.872;9.688;2022-08-01T10:53:11;1.60;;;1.30;;
4957;SDS011;2494;51.872;9.688;2022-08-01T10:55:50;1.90;;;1.80;;
4957;SDS011;2494;51.872;9.688;2022-08-01T10:58:22;1.60;;;1.50;;
4957;SDS011;2494;51.872;9.688;2022-08-01T11:00:56;1.60;;;1.50;;
4957;SDS011;2494;51.872;9.688;2022-08-01T11:03:38;1.23;;;1.20;;
4957;SDS011;2494;51.872;9.688;2022-08-01T11:06:04;1.30;;;1.20;;
4957;SDS011;2494;51.872;9.688;2022-08-01T11:08:31;2.07;;;1.23;;
4957;SDS011;2494;51.872;9.688;2022-08-01T11:11:04;2.80;;;1.20;;
4957;SDS011;2494;51.872;9.688;2022-08-01T11:16:24;1.20;;;1.10;;
4957;SDS011;2494;51.872;9.688;2022-08-01T11:18:51;1.83;;;1.43;;
4957;SDS011;2494;51.872;9.688;2022-08-01T11:21:17;1.30;;;1.20;;
4957;SDS011;2494;51.872;9.688;2022-08-01T11:23:46;3.57;;;1.30;;
4957;SDS011;2494;51.872;9.688;2022-08-01T11:26:15;6.00;;;1.10;;
4957;SDS011;2494;51.872;9.688;2022-08-01T11:28:42;1.90;;;1.13;;
4957;SDS011;2494;51.872;9.688;2022-08-01T11:31:25;1.20;;;1.10;;
4957;SDS011;2494;51.872;9.688;2022-08-01T11:33:53;1.20;;;1.10;;
4957;SDS011;2494;51.872;9.688;2022-08-01T11:36:19;3.63;;;1.00;;
4957;SDS011;2494;51.872;9.688;2022-08-01T11:38:47;1.53;;;0.97;;
4957;SDS011;2494;51.872;9.688;2022-08-01T11:41:16;1.40;;;1.30;;
4957;SDS011;2494;51.872;9.688;2022-08-01T11:43:54;1.20;;;1.10;;
4957;SDS011;2494;51.872;9.688;2022-08-01T11:49:22;1.37;;;1.20;;
4957;SDS011;2494;51.872;9.688;2022-08-01T11:51:52;1.30;;;1.20;;
4957;SDS011;2494;51.872;9.688;2022-08-01T11:54:24;0.80;;;0.80;;
4957;SDS011;2494;51.872;9.688;2022-08-01T11:56:53;1.10;;;1.00;;
4957;SDS011;2494;51.872;9.688;2022-08-01T11:59:21;1.17;;;1.07;;
4957;SDS011;2494;51.872;9.688;2022-08-01T12:01:47;1.60;;;1.33;;
4957;SDS011;2494;51.872;9.688;2022-08-01T12:04:13;1.63;;;1.40;;
4957;SDS011;2494;51.872;9.688;2022-08-01T12:06:40;1.47;;;1.33;;
4957;SDS011;2494;51.872;9.688;2022-08-01T12:09:16;1.30;;;1.20;;
4957;SDS011;2494;51.872;9.688;2022-08-01T12:11:42;1.70;;;1.60;;
4957;SDS011;2494;51.872;9.688;2022-08-01T12:14:14;3.57;;;1.37;;
4957;SDS011;2494;51.872;9.688;2022-08-01T12:16:47;1.40;;;1.30;;
4957;SDS011;2494;51.872;9.688;2022-08-01T12:19:17;1.53;;;1.43;;
4957;SDS011;2494;51.872;9.688;2022-08-01T12:21:43;1.40;;;1.30;;
4957;SDS011;2494;51.872;9.688;2022-08-01T12:24:09;1.50;;;1.40;;
4957;SDS011;2494;51.872;9.688;2022-08-01T12:26:39;1.47;;;1.37;;
4957;SDS011;2494;51.872;9.688;2022-08-01T12:29:06;1.67;;;1.57;;
4957;SDS011;2494;51.872;9.688;2022-08-01T12:31:34;1.30;;;1.20;;
4957;SDS011;2494;51.872;9.688;2022-08-01T12:36:41;2.57;;;1.50;;
4957;SDS011;2494;51.872;9.688;2022-08-01T12:39:08;1.53;;;1.40;;
4957;SDS011;2494;51.872;9.688;2022-08-01T12:41:34;2.07;;;1.40;;
4957;SDS011;2494;51.872;9.688;2022-08-01T12:44:01;1.50;;;1.40;;
4957;SDS011;2494;51.872;9.688;2022-08-01T12:46:28;1.47;;;1.37;;
4957;SDS011;2494;51.872;9.688;2022-08-01T12:48:55;1.23;;;1.20;;
4957;SDS011;2494;51.872;9.688;2022-08-01T12:51:22;1.33;;;1.23;;
4957;SDS011;2494;51.872;9.688;2022-08-01T12:53:48;1.47;;;1.10;;
4957;SDS011;2494;51.872;9.688;2022-08-01T12:56:14;2.07;;;1.30;;
4957;SDS011;2494;51.872;9.688;2022-08-01T12:58:41;1.43;;;1.33;;
4957;SDS011;2494;51.872;9.688;2022-08-01T13:01:07;2.30;;;1.50;;
4957;SDS011;2494;51.872;9.688;2022-08-01T13:03:34;1.73;;;1.20;;
4957;SDS011;2494;51.872;9.688;2022-08-01T13:06:08;1.13;;;1.03;;
4957;SDS011;2494;51.872;9.688;2022-08-01T13:08:35;1.10;;;1.00;;
4957;SDS011;2494;51.872;9.688;2022-08-01T13:11:03;1.87;;;1.10;;
4957;SDS011;2494;51.872;9.688;2022-08-01T13:13:37;2.30;;;1.33;;
4957;SDS011;2494;51.872;9.688;2022-08-01T13:16:04;0.97;;;0.97;;
4957;SDS011;2494;51.872;9.688;2022-08-01T13:18:31;1.37;;;1.27;;
4957;SDS011;2494;51.872;9.688;2022-08-01T13:21:08;1.53;;;1.13;;
4957;SDS011;2494;51.872;9.688;2022-08-01T13:23:35;1.93;;;1.30;;
4957;SDS011;2494;51.872;9.688;2022-08-01T13:26:02;1.40;;;1.30;;
4957;SDS011;2494;51.872;9.688;2022-08-01T13:28:28;1.20;;;1.10;;
4957;SDS011;2494;51.872;9.688;2022-08-01T13:30:57;1.50;;;1.10;;
4957;SDS011;2494;51.872;9.688;2022-08-01T13:33:23;1.60;;;1.50;;
4957;SDS011;2494;51.872;9.688;2022-08-01T13:35:50;2.27;;;1.30;;
4957;SDS011;2494;51.872;9.688;2022-08-01T13:38:19;1.30;;;1.20;;
4957;SDS011;2494;51.872;9.688;2022-08-01T13:40:45;1.87;;;1.20;;
4957;SDS011;2494;51.872;9.688;2022-08-01T13:43:11;1.13;;;1.10;;
4957;SDS011;2494;51.872;9.688;2022-08-01T13:45:38;1.40;;;1.30;;
4957;SDS011;2494;51.872;9.688;2022-08-01T13:48:04;1.20;;;1.10;;
4957;SDS011;2494;51.872;9.688;2022-08-01T13:50:31;1.83;;;1.17;;
4957;SDS011;2494;51.872;9.688;2022-08-01T13:52:57;1.73;;;1.40;;
4957;SDS011;2494;51.872;9.688;2022-08-01T13:55:25;1.57;;;1.10;;
4957;SDS011;2494;51.872;9.688;2022-08-01T13:57:51;1.67;;;1.20;;
4957;SDS011;2494;51.872;9.688;2022-08-01T14:00:18;1.33;;;1.23;;
4957;SDS011;2494;51.872;9.688;2022-08-01T14:02:44;1.80;;;1.70;;
4957;SDS011;2494;51.872;9.688;2022-08-01T14:05:10;2.33;;;1.70;;
4957;SDS011;2494;51.872;9.688;2022-08-01T14:07:37;2.30;;;2.20;;
4957;SDS011;2494;51.872;9.688;2022-08-01T14:10:04;3.63;;;2.63;;
4957;SDS011;2494;51.872;9.688;2022-08-01T14:12:31;3.93;;;3.07;;
4957;SDS011;2494;51.872;9.688;2022-08-01T14:14:58;3.70;;;3.40;;
4957;SDS011;2494;51.872;9.688;2022-08-01T14:17:24;3.67;;;3.47;;
4957;SDS011;2494;51.872;9.688;2022-08-01T14:19:51;4.50;;;4.20;;
4957;SDS011;2494;51.872;9.688;2022-08-01T14:22:17;4.97;;;4.60;;
4957;SDS011;2494;51.872;9.688;2022-08-01T14:24:44;4.97;;;4.77;;
4957;SDS011;2494;51.872;9.688;2022-08-01T14:27:10;5.47;;;5.17;;
4957;SDS011;2494;51.872;9.688;2022-08-01T14:29:38;5.33;;;5.03;;
4957;SDS011;2494;51.872;9.688;2022-08-01T14:32:04;5.43;;;4.93;;
4957;SDS011;2494;51.872;9.688;2022-08-01T14:34:30;4.20;;;4.00;;
4957;SDS011;2494;51.872;9.688;2022-08-01T14:36:57;5.13;;;4.87;;
4957;SDS011;2494;51.872;9.688;2022-08-01T14:39:23;5.30;;;5.03;;
4957;SDS011;2494;51.872;9.688;2022-08-01T14:41:49;5.63;;;5.33;;
4957;SDS011;2494;51.872;9.688;2022-08-01T14:44:16;5.23;;;5.03;;
4957;SDS011;2494;51.872;9.688;2022-08-01T14:46:43;5.30;;;4.90;;
4957;SDS011;2494;51.872;9.688;2022-08-01T14:49:10;5.70;;;5.40;;
4957;SDS011;2494;51.872;9.688;2022-08-01T14:51:37;5.03;;;4.73;;
4957;SDS011;2494;51.872;9.688;2022-08-01T14:54:03;6.60;;;6.10;;
4957;SDS011;2494;51.872;9.688;2022-08-01T14:56:30;7.50;;;6.80;;
4957;SDS011;2494;51.872;9.688;2022-08-01T14:58:56;7.73;;;7.30;;
4957;SDS011;2494;51.872;9.688;2022-08-01T15:01:23;7.40;;;6.80;;
4957;SDS011;2494;51.872;9.688;2022-08-01T15:03:51;6.93;;;6.43;;
4957;SDS011;2494;51.872;9.688;2022-08-01T15:06:17;6.57;;;6.00;;
4957;SDS011;2494;51.872;9.688;2022-08-01T15:08:44;7.10;;;6.67;;
4957;SDS011;2494;51.872;9.688;2022-08-01T15:11:10;7.33;;;6.70;;
4957;SDS011;2494;51.872;9.688;2022-08-01T15:13:36;7.57;;;7.10;;
4957;SDS011;2494;51.872;9.688;2022-08-01T15:16:03;5.87;;;5.47;;
4957;SDS011;2494;51.872;9.688;2022-08-01T15:18:29;6.43;;;6.03;;
4957;SDS011;2494;51.872;9.688;2022-08-01T15:20:57;6.13;;;5.83;;
4957;SDS011;2494;51.872;9.688;2022-08-01T15:23:23;6.37;;;5.87;;